Time;durP1;ratioP1;P1;durP2;ratioP2;P2;SDS_P1;SDS_P2;PMS_P1;PMS_P2;Temp;Humidity;BMP_temperature;BMP_pressure;BME280_temperature;BME280_humidity;BME280_pressure;Samples;Min_cycle;Max_cycle;Signal;HPM_P1;HPM_P2
2023/08/29 00:01:44;;;;;;;7.30;4.60;;;;;;;22.49;77.78;97799.27;221806;181;147659;-62
2023/08/29 00:06:49;;;;;;;6.90;5.00;;;;;;;22.49;77.75;97802.31;221748;181;139314;-61
2023/08/29 00:11:56;;;;;;;6.60;4.60;;;;;;;22.49;78.02;97814.73;221696;181;137075;-62
2023/08/29 00:17:00;;;;;;;8.00;4.70;;;;;;;22.48;77.99;97815.48;221779;182;147394;-63
2023/08/29 00:22:07;;;;;;;8.50;5.40;;;;;;;22.49;78.08;97823.50;221855;181;149537;-61
2023/08/29 00:27:11;;;;;;;7.70;5.00;;;;;;;22.52;78.15;97836.55;221748;182;137916;-61
2023/08/29 00:32:16;;;;;;;8.90;5.70;;;;;;;22.50;78.31;97855.80;221831;181;147253;-62
2023/08/29 00:37:21;;;;;;;;;;;;;;;22.42;78.46;97958.69;221827;182;138610;-60
2023/08/29 00:42:25;;;;;;;8.90;6.10;;;;;;;22.27;78.94;97952.35;221836;182;132961;-62
2023/08/29 00:47:29;;;;;;;14.30;8.10;;;;;;;22.17;79.65;97967.75;221869;182;148286;-61
2023/08/29 00:52:35;;;;;;;14.30;9.60;;;;;;;22.10;80.44;97962.73;221768;179;139858;-63
2023/08/29 00:57:39;;;;;;;16.70;10.20;;;;;;;22.04;81.12;97932.16;221636;181;137511;-62
2023/08/29 01:02:43;;;;;;;12.50;8.60;;;;;;;21.96;81.27;97891.75;221740;182;147403;-63
2023/08/29 01:07:57;;;;;;;14.00;8.80;;;;;;;21.92;81.58;97884.72;221636;181;140336;-64
2023/08/29 01:13:07;;;;;;;12.90;9.10;;;;;;;21.93;81.76;97882.93;221641;182;137834;-60
2023/08/29 01:18:13;;;;;;;13.00;9.50;;;;;;;21.90;81.80;97870.52;221735;181;147392;-60
2023/08/29 01:23:33;;;;;;;12.00;9.60;;;;;;;21.80;82.13;97883.36;221816;182;138648;-62
2023/08/29 01:28:40;;;;;;;16.00;11.00;;;;;;;21.67;82.84;97881.25;221778;181;138236;-62
2023/08/29 01:33:44;;;;;;;14.80;10.80;;;;;;;21.62;83.26;97873.58;221718;182;147503;-60
2023/08/29 01:38:48;;;;;;;16.30;11.90;;;;;;;21.61;83.47;97869.73;221647;180;142070;-59
2023/08/29 01:43:52;;;;;;;17.40;11.90;;;;;;;21.59;83.86;97879.59;221744;181;138523;-62
2023/08/29 01:48:59;;;;;;;;;;;;;;;21.57;83.92;97879.52;221631;182;147610;-63
2023/08/29 01:54:03;;;;;;;14.80;10.90;;;;;;;21.56;84.13;97871.27;221866;182;139482;-62
2023/08/29 01:59:07;;;;;;;18.10;11.80;;;;;;;21.57;84.55;97870.20;221778;182;138263;-62
2023/08/29 02:04:12;;;;;;;22.50;13.10;;;;;;;21.59;84.44;97861.81;221689;181;149306;-61
2023/08/29 02:09:16;;;;;;;;;;;;;;;21.60;84.50;97866.70;221808;182;138871;-64
2023/08/29 02:14:22;;;;;;;20.50;13.30;;;;;;;21.59;84.79;97846.14;221824;182;132944;-62
2023/08/29 02:19:28;;;;;;;19.30;12.30;;;;;;;21.57;84.42;97848.36;221803;181;147690;-61
2023/08/29 02:24:32;;;;;;;13.60;11.40;;;;;;;21.53;84.48;97851.45;221831;181;138840;-64
2023/08/29 02:29:36;;;;;;;15.50;11.90;;;;;;;21.50;84.46;97839.10;221647;182;138404;-61
2023/08/29 02:34:43;;;;;;;20.20;12.90;;;;;;;21.44;84.43;97850.58;221673;181;148714;-60
2023/08/29 02:39:47;;;;;;;16.40;12.70;;;;;;;21.38;84.63;97852.52;221702;181;138974;-62
2023/08/29 02:44:52;;;;;;;15.10;10.90;;;;;;;21.42;84.54;97851.73;221608;181;138773;-63
2023/08/29 02:49:57;;;;;;;;;;;;;;;21.46;83.95;97851.64;221852;181;148025;-63
2023/08/29 02:55:05;;;;;;;13.50;10.20;;;;;;;21.43;83.44;97857.65;221699;181;138807;-61
2023/08/29 03:00:14;;;;;;;13.30;8.90;;;;;;;21.41;82.91;97853.38;221652;181;137860;-63
2023/08/29 03:05:18;;;;;;;16.30;8.30;;;;;;;21.32;82.28;97861.08;221764;181;147124;-61
2023/08/29 03:10:22;;;;;;;10.70;7.10;;;;;;;21.27;82.31;97859.33;221724;181;138823;-62
2023/08/29 03:15:31;;;;;;;9.70;8.40;;;;;;;21.20;82.00;97849.73;221717;182;138491;-62
2023/08/29 03:20:39;;;;;;;10.50;8.80;;;;;;;21.10;81.78;97845.03;221675;181;149384;-60
2023/08/29 03:25:46;;;;;;;9.20;8.00;;;;;;;21.02;82.34;97856.02;221755;182;138992;-63
2023/08/29 03:30:50;;;;;;;12.10;8.10;;;;;;;21.01;82.19;97854.84;221810;182;141162;-61
2023/08/29 03:35:59;;;;;;;9.90;8.10;;;;;;;20.98;82.03;97872.82;221780;181;147326;-61
2023/08/29 03:41:06;;;;;;;12.80;9.10;;;;;;;20.94;81.90;97869.40;221808;181;141914;-60
2023/08/29 03:46:09;;;;;;;15.40;9.70;;;;;;;20.91;82.08;97861.64;221735;182;138145;-63
2023/08/29 03:51:14;;;;;;;11.60;9.70;;;;;;;20.91;81.92;97853.89;221675;183;147321;-62
2023/08/29 03:56:19;;;;;;;10.90;8.60;;;;;;;20.86;82.12;97859.71;221822;182;140159;-63
2023/08/29 04:01:24;;;;;;;10.90;8.10;;;;;;;20.87;82.10;97855.10;221809;182;138950;-62
2023/08/29 04:06:34;;;;;;;10.20;8.20;;;;;;;20.85;81.92;97865.30;221684;182;147460;-62
2023/08/29 04:11:39;;;;;;;11.80;9.10;;;;;;;20.78;81.81;97866.97;221812;182;139801;-63
2023/08/29 04:16:44;;;;;;;13.70;9.60;;;;;;;20.79;81.73;97863.69;221743;178;137058;-62
2023/08/29 04:21:50;;;;;;;14.80;9.10;;;;;;;20.71;81.58;97857.48;221690;182;147425;-62
2023/08/29 04:26:55;;;;;;;;;;;;;;;20.62;81.82;97871.91;221701;181;140910;-61
2023/08/29 04:31:58;;;;;;;12.60;9.00;;;;;;;20.55;82.00;97887.88;221787;182;133607;-61
2023/08/29 04:37:04;;;;;;;14.20;8.90;;;;;;;20.49;82.02;97882.65;221650;181;148159;-62
2023/08/29 04:42:08;;;;;;;15.00;8.60;;;;;;;20.40;82.21;97878.69;221646;182;138918;-65
2023/08/29 04:47:13;;;;;;;10.00;7.30;;;;;;;20.36;82.39;97864.83;221684;181;138658;-61
2023/08/29 04:52:18;;;;;;;11.80;7.80;;;;;;;20.37;82.66;97846.06;221712;182;147586;-62
2023/08/29 04:57:22;;;;;;;10.60;7.50;;;;;;;20.38;82.59;97857.29;221708;179;138641;-62
2023/08/29 05:02:27;;;;;;;10.40;6.50;;;;;;;20.31;82.58;97873.45;221840;181;138360;-64
2023/08/29 05:07:32;;;;;;;8.60;6.40;;;;;;;20.25;82.79;97868.29;221714;181;147621;-62
2023/08/29 05:12:36;;;;;;;12.20;6.90;;;;;;;20.27;83.06;97861.84;221660;182;138974;-62
2023/08/29 05:17:41;;;;;;;9.50;6.80;;;;;;;20.32;82.83;97862.66;221821;181;137398;-64
2023/08/29 05:22:46;;;;;;;;;;;;;;;20.37;82.99;97862.77;221669;182;148194;-64
2023/08/29 05:27:50;;;;;;;16.10;10.00;;;;;;;20.44;82.74;97875.88;221687;182;139700;-62
2023/08/29 05:32:56;;;;;;;9.70;6.70;;;;;;;20.46;82.69;97862.82;221726;182;137370;-61
2023/08/29 05:38:01;;;;;;;7.20;5.80;;;;;;;20.52;82.51;97836.81;221625;182;148071;-60
2023/08/29 05:43:06;;;;;;;;;;;;;;;20.65;82.25;97848.08;221773;182;139057;-62
2023/08/29 05:48:09;;;;;;;8.70;6.90;;;;;;;20.71;81.65;97846.28;221810;182;133135;-60
2023/08/29 05:53:16;;;;;;;10.00;7.40;;;;;;;20.79;81.15;97850.30;221691;183;147642;-63
2023/08/29 05:58:24;;;;;;;10.10;6.30;;;;;;;20.84;80.97;97848.60;221752;182;139442;-62
2023/08/29 06:03:29;;;;;;;8.20;6.40;;;;;;;20.92;80.93;97842.34;221704;182;139094;-63
2023/08/29 06:08:33;;;;;;;10.20;7.90;;;;;;;21.01;80.29;97846.27;221752;182;147629;-61
2023/08/29 06:13:37;;;;;;;9.70;7.60;;;;;;;21.05;79.65;97849.23;221651;182;139544;-62
2023/08/29 06:18:43;;;;;;;10.20;7.60;;;;;;;21.14;79.62;97859.18;221674;182;137300;-63
2023/08/29 06:23:47;;;;;;;12.50;6.70;;;;;;;21.18;79.41;97871.27;221837;182;147695;-61
2023/08/29 06:28:52;;;;;;;;;;;;;;;21.24;79.16;97884.40;221594;183;139141;-63
2023/08/29 06:33:56;;;;;;;7.80;6.20;;;;;;;21.32;78.61;97892.81;221662;182;132943;-63
2023/08/29 06:39:02;;;;;;;;;;;;;;;21.34;77.84;97903.52;221740;181;147882;-61
2023/08/29 06:44:07;;;;;;;12.50;5.80;;;;;;;21.35;77.86;97893.64;221751;181;140918;-62
2023/08/29 06:49:13;;;;;;;8.20;5.40;;;;;;;21.39;77.40;97885.09;221843;181;137238;-61
2023/08/29 06:54:19;;;;;;;9.40;5.50;;;;;;;21.40;77.36;97872.32;221706;181;149350;-62
2023/08/29 06:59:23;;;;;;;11.90;6.00;;;;;;;21.45;76.88;97861.96;221658;178;138647;-63
2023/08/29 07:04:29;;;;;;;9.10;5.80;;;;;;;21.52;76.97;97851.32;221779;181;138767;-61
2023/08/29 07:09:35;;;;;;;6.60;5.20;;;;;;;21.66;76.98;97832.73;221632;178;148079;-62
2023/08/29 07:14:39;;;;;;;7.50;5.00;;;;;;;21.79;76.37;97833.23;221624;182;138639;-64
2023/08/29 07:19:44;;;;;;;7.80;5.00;;;;;;;21.91;76.28;97828.04;221859;182;138329;-62
2023/08/29 07:24:50;;;;;;;7.10;4.90;;;;;;;22.05;75.42;97840.39;221600;182;149090;-63
2023/08/29 07:29:55;;;;;;;7.70;5.20;;;;;;;22.23;75.11;97846.83;221726;182;138887;-62
2023/08/29 07:35:01;;;;;;;5.40;4.70;;;;;;;22.36;75.05;97863.71;221744;181;137803;-65
2023/08/29 07:40:08;;;;;;;6.80;4.70;;;;;;;22.46;74.81;97875.38;221709;181;147379;-64
2023/08/29 07:45:13;;;;;;;7.40;3.90;;;;;;;22.55;74.46;97886.31;221717;178;139770;-63
2023/08/29 07:50:18;;;;;;;;;;;;;;;22.72;73.82;97868.25;221748;183;138088;-65
2023/08/29 07:55:24;;;;;;;5.30;3.90;;;;;;;22.81;72.78;97865.11;221873;182;147417;-65
2023/08/29 08:00:30;;;;;;;5.70;4.00;;;;;;;22.95;72.79;97877.82;221620;182;141481;-66
2023/08/29 08:05:35;;;;;;;5.40;3.90;;;;;;;23.08;72.42;97885.21;221806;181;138690;-64
2023/08/29 08:10:42;;;;;;;6.30;3.90;;;;;;;23.14;72.12;97893.64;221790;181;147751;-65
2023/08/29 08:15:46;;;;;;;5.20;4.10;;;;;;;23.17;72.15;97895.06;221727;179;141428;-65
2023/08/29 08:20:53;;;;;;;5.50;4.10;;;;;;;23.23;72.60;97884.09;221786;181;141299;-63
2023/08/29 08:25:58;;;;;;;4.80;4.20;;;;;;;23.35;72.51;97873.44;221908;181;147337;-64
2023/08/29 08:31:05;;;;;;;4.70;4.10;;;;;;;23.56;72.03;97866.83;221869;181;140628;-62
2023/08/29 08:36:08;;;;;;;5.20;4.20;;;;;;;23.72;71.27;97870.86;221903;181;137787;-64
2023/08/29 08:41:14;;;;;;;7.80;4.40;;;;;;;23.89;71.09;97867.85;221831;182;147978;-64
2023/08/29 08:46:19;;;;;;;5.50;4.20;;;;;;;24.04;70.95;97862.98;221778;182;139461;-66
2023/08/29 11:05:30;;;;;;;10.20;6.30;;;;;;;26.62;63.53;97875.10;220493;193;666953;-62
2023/08/29 11:10:35;;;;;;;11.70;6.80;;;;;;;26.76;63.43;97868.81;221540;187;137175;-63
2023/08/29 11:15:47;;;;;;;13.20;6.30;;;;;;;26.95;63.05;97852.70;221712;184;144951;-63
2023/08/29 11:20:56;;;;;;;10.30;6.20;;;;;;;27.10;61.80;97857.34;221773;184;140629;-63
2023/08/29 11:25:59;;;;;;;10.90;6.30;;;;;;;27.15;62.13;97858.48;221722;184;137492;-64
2023/08/29 11:31:06;;;;;;;10.80;6.30;;;;;;;27.11;61.60;97858.45;221749;184;143605;-62
2023/08/29 11:36:09;;;;;;;9.70;6.00;;;;;;;27.04;61.67;97861.64;221886;184;138847;-63
2023/08/29 11:41:14;;;;;;;8.10;5.60;;;;;;;26.88;61.44;97868.80;221778;184;137715;-62
2023/08/29 11:46:44;;;;;;;10.00;5.10;;;;;;;26.66;60.66;97883.02;221840;185;144703;-62
2023/08/29 11:51:49;;;;;;;9.40;5.50;;;;;;;26.42;60.29;97927.34;221875;185;139081;-64
2023/08/29 11:56:56;;;;;;;13.40;6.40;;;;;;;26.14;61.96;97932.52;221794;184;136805;-62
2023/08/29 12:02:00;;;;;;;14.80;6.30;;;;;;;25.79;65.73;97872.79;221826;184;145842;-62
2023/08/29 12:07:12;;;;;;;12.70;6.00;;;;;;;25.44;67.98;97887.30;221582;183;139817;-61
2023/08/29 12:12:37;;;;;;;13.10;6.30;;;;;;;25.20;70.27;97891.46;221752;184;138400;-64
2023/08/29 12:17:47;;;;;;;12.00;7.00;;;;;;;25.10;72.20;97901.04;221760;184;145718;-64
2023/08/29 12:22:53;;;;;;;12.60;7.30;;;;;;;25.01;73.98;97911.49;221681;184;139096;-62
2023/08/29 12:27:58;;;;;;;12.70;5.70;;;;;;;24.94;73.95;97904.65;221812;184;137380;-64
2023/08/29 12:33:05;;;;;;;7.60;5.10;;;;;;;24.93;74.15;97890.13;221625;184;150954;-64
2023/08/29 12:38:09;;;;;;;9.90;5.90;;;;;;;24.95;74.75;97881.06;221593;183;140088;-65
2023/08/29 12:43:16;;;;;;;9.20;5.60;;;;;;;25.04;75.34;97885.50;221650;183;230689;-63
2023/08/29 12:48:22;;;;;;;9.10;4.70;;;;;;;25.18;76.69;97883.34;221592;180;146098;-63
2023/08/29 12:53:27;;;;;;;9.80;4.20;;;;;;;25.27;76.10;97876.21;221596;183;139109;-65
2023/08/29 12:58:33;;;;;;;9.30;5.00;;;;;;;25.18;75.38;97867.42;221577;184;137434;-65
2023/08/29 13:03:37;;;;;;;13.60;5.10;;;;;;;25.25;76.22;97852.81;221620;183;145848;-66
2023/08/29 13:08:41;;;;;;;9.10;4.90;;;;;;;25.63;76.41;97853.27;221599;183;139494;-64
2023/08/29 13:13:46;;;;;;;9.00;4.70;;;;;;;25.84;75.73;97848.53;221562;184;137493;-64
2023/08/29 13:18:50;;;;;;;10.60;4.30;;;;;;;25.90;74.46;97842.31;221721;184;145546;-67
2023/08/29 13:23:55;;;;;;;7.10;5.10;;;;;;;26.02;73.42;97822.83;221682;184;140655;-66
2023/08/29 13:29:01;;;;;;;9.80;4.70;;;;;;;26.42;73.40;97820.60;221730;184;137424;-65
2023/08/29 13:34:09;;;;;;;11.00;5.00;;;;;;;26.59;72.68;97819.29;221799;184;146388;-62
2023/08/29 13:39:13;;;;;;;8.00;5.00;;;;;;;26.47;72.31;97831.51;221578;184;139001;-65
2023/08/29 13:44:17;;;;;;;6.60;4.60;;;;;;;26.17;71.04;97835.48;221743;184;137854;-64
2023/08/29 13:49:23;;;;;;;15.50;5.00;;;;;;;25.93;70.25;97845.68;221689;184;145713;-67
2023/08/29 13:54:28;;;;;;;9.20;5.00;;;;;;;25.78;67.69;97838.29;221567;183;138649;-64
2023/08/29 13:59:32;;;;;;;10.70;4.70;;;;;;;25.69;66.55;97858.60;221747;184;137825;-59
2023/08/29 14:04:37;;;;;;;11.20;5.60;;;;;;;25.67;66.65;97894.45;221578;180;147346;-60
2023/08/29 14:09:43;;;;;;;18.00;6.60;;;;;;;25.61;67.51;97936.52;221629;184;139120;-60
2023/08/29 14:14:48;;;;;;;;;;;;;;;25.49;68.37;97908.73;221654;184;138964;-58
2023/08/29 14:19:56;;;;;;;15.50;5.90;;;;;;;25.33;70.15;97899.45;221592;184;145936;-61
2023/08/29 14:25:01;;;;;;;12.70;5.60;;;;;;;25.33;71.34;97907.77;221557;183;138892;-62
2023/08/29 14:30:09;;;;;;;13.60;6.50;;;;;;;25.38;72.00;97881.73;221727;183;137525;-60
2023/08/29 14:35:14;;;;;;;10.60;6.10;;;;;;;25.39;72.44;97880.98;221560;184;145546;-60
2023/08/29 14:40:25;;;;;;;12.20;6.40;;;;;;;25.38;72.93;97876.33;221750;182;140055;-57
2023/08/29 14:45:28;;;;;;;12.30;5.80;;;;;;;25.36;73.70;97891.70;221776;182;137946;-61
2023/08/29 14:50:33;;;;;;;8.20;5.40;;;;;;;25.31;73.70;97879.59;221844;180;145639;-58
2023/08/29 14:55:39;;;;;;;12.80;5.60;;;;;;;25.19;73.54;97873.56;221805;182;141268;-57
2023/08/29 15:00:44;;;;;;;10.50;5.50;;;;;;;25.18;73.11;97883.77;221750;179;138362;-58
2023/08/29 15:05:56;;;;;;;;;;;;;;;25.20;73.83;97888.65;221831;182;145785;-59
2023/08/29 15:11:01;;;;;;;11.20;6.00;;;;;;;25.08;74.49;97882.02;221848;183;138808;-61
2023/08/29 15:16:06;;;;;;;9.10;5.50;;;;;;;25.02;75.02;97867.55;221897;182;137951;-60
2023/08/29 15:21:13;;;;;;;9.30;5.50;;;;;;;25.02;75.01;97876.46;221823;182;146686;-59
2023/08/29 15:26:22;;;;;;;10.30;5.50;;;;;;;25.09;74.44;97886.59;221712;182;140514;-61
2023/08/29 15:31:26;;;;;;;7.00;5.70;;;;;;;25.16;74.04;97870.40;221613;183;137536;-60
2023/08/29 15:36:30;;;;;;;11.60;6.40;;;;;;;25.11;74.78;97853.80;221741;183;145892;-62
2023/08/29 15:41:36;;;;;;;8.30;6.20;;;;;;;25.03;75.41;97834.41;221807;182;141186;-60
2023/08/29 15:46:40;;;;;;;;;;;;;;;25.06;74.61;97843.20;221782;183;137293;-59
2023/08/29 15:51:44;;;;;;;14.20;8.10;;;;;;;25.16;73.53;97849.79;221738;182;146555;-59
2023/08/29 15:56:48;;;;;;;11.10;5.90;;;;;;;25.22;73.49;97855.12;221753;181;138725;-59
2023/08/29 16:01:56;;;;;;;8.90;5.60;;;;;;;25.16;73.65;97844.71;221742;182;137585;-58
2023/08/29 16:06:59;;;;;;;11.20;6.00;;;;;;;25.17;73.38;97842.63;221684;183;146183;-61
2023/08/29 16:12:06;;;;;;;10.60;5.00;;;;;;;25.17;73.50;97854.60;221988;182;138955;-61
2023/08/29 16:17:09;;;;;;;10.90;5.30;;;;;;;25.15;73.00;97859.40;221959;182;138875;-61
2023/08/29 16:22:16;;;;;;;12.70;7.20;;;;;;;25.18;72.10;97856.45;222004;183;145844;-61
2023/08/29 16:27:22;;;;;;;11.00;5.70;;;;;;;25.21;71.74;97854.70;221679;183;139358;-59
2023/08/29 16:32:26;;;;;;;7.70;5.00;;;;;;;25.09;72.36;97848.80;221756;182;137437;-58
2023/08/29 16:37:31;;;;;;;;;;;;;;;24.94;72.71;97850.00;221783;182;145477;-57
2023/08/29 16:42:36;;;;;;;;;;;;;;;24.83;72.81;97847.77;221798;182;138881;-59
2023/08/29 16:47:40;;;;;;;13.70;5.50;;;;;;;24.70;73.19;97846.48;221809;182;131197;-60
2023/08/29 16:52:45;;;;;;;16.20;6.50;;;;;;;24.62;74.04;97852.98;221698;183;145705;-59
2023/08/29 16:57:50;;;;;;;10.40;5.30;;;;;;;24.50;74.45;97853.08;221712;182;139538;-58
2023/08/29 17:02:54;;;;;;;11.90;5.90;;;;;;;24.46;75.12;97847.14;221762;182;139944;-60
2023/08/29 17:07:59;;;;;;;12.40;6.00;;;;;;;24.47;75.60;97844.09;221781;182;146215;-57
2023/08/29 17:13:03;;;;;;;;;;;;;;;24.48;76.01;97853.91;221746;182;140935;-64
2023/08/29 17:18:09;;;;;;;9.10;5.10;;;;;;;24.47;76.67;97857.35;221861;182;131171;-61
2023/08/29 17:23:15;;;;;;;12.00;6.60;;;;;;;24.49;77.44;97863.27;221759;181;146990;-61
2023/08/29 17:28:22;;;;;;;11.50;7.30;;;;;;;24.55;78.23;97870.89;221855;182;139309;-61
2023/08/29 17:33:27;;;;;;;11.70;10.40;;;;;;;24.56;78.28;97864.84;221806;181;139741;-61
2023/08/29 17:38:32;;;;;;;;;;;;;;;24.45;77.07;97863.55;221668;183;145900;-62
2023/08/29 17:43:38;;;;;;;15.90;13.10;;;;;;;24.32;77.22;97881.71;221766;182;138942;-62
2023/08/29 17:48:43;;;;;;;20.50;16.10;;;;;;;24.24;77.25;97885.15;221770;182;139975;-60
2023/08/29 17:53:49;;;;;;;20.70;17.00;;;;;;;24.16;77.00;97884.19;221729;182;147571;-62
2023/08/29 17:58:53;;;;;;;17.90;15.10;;;;;;;24.05;76.33;97881.06;221854;182;139473;-61
2023/08/29 18:03:58;;;;;;;19.70;15.00;;;;;;;23.91;76.32;97873.16;221828;182;138559;-60
2023/08/29 18:09:02;;;;;;;24.30;18.50;;;;;;;23.80;76.69;97856.65;221958;182;145737;-61
2023/08/29 18:14:06;;;;;;;21.90;18.30;;;;;;;23.77;76.50;97846.66;221972;181;138797;-60
2023/08/29 18:19:10;;;;;;;22.80;18.70;;;;;;;23.73;76.68;97846.41;221880;182;137898;-61
2023/08/29 18:24:15;;;;;;;24.20;17.90;;;;;;;23.70;76.39;97852.53;222004;181;148177;-61
2023/08/29 18:29:20;;;;;;;;;;;;;;;23.63;76.56;97851.54;222069;181;139082;-60
2023/08/29 18:34:25;;;;;;;24.50;17.40;;;;;;;23.61;76.35;97856.45;222165;181;131782;-61
2023/08/29 18:39:30;;;;;;;;;;;;;;;23.55;76.00;97842.72;221993;181;145851;-61
2023/08/29 18:44:36;;;;;;;21.60;17.50;;;;;;;23.46;75.77;97841.29;221797;181;139126;-60
2023/08/29 18:49:39;;;;;;;21.00;16.10;;;;;;;23.39;75.27;97846.09;221818;177;138224;-63
2023/08/29 18:54:44;;;;;;;21.20;15.60;;;;;;;23.28;75.90;97834.55;221755;181;145684;-60
2023/08/29 18:59:49;;;;;;;21.40;16.30;;;;;;;23.32;76.09;97830.95;221783;181;139571;-60
2023/08/29 19:04:53;;;;;;;;;;;;;;;23.34;75.31;97820.13;221886;182;138711;-61
2023/08/29 19:10:00;;;;;;;21.00;16.20;;;;;;;23.30;74.95;97823.05;221988;182;145562;-59
2023/08/29 19:15:06;;;;;;;24.60;17.60;;;;;;;23.32;74.40;97827.27;221799;181;139607;-60
2023/08/29 19:20:12;;;;;;;23.30;15.70;;;;;;;23.28;74.43;97837.83;221774;182;137350;-64
2023/08/29 19:25:16;;;;;;;21.70;15.30;;;;;;;23.19;74.33;97837.77;221914;181;145818;-62
2023/08/29 19:30:20;;;;;;;21.80;15.40;;;;;;;23.04;74.07;97837.95;221819;182;139098;-63
2023/08/29 19:35:29;;;;;;;21.40;15.10;;;;;;;22.97;74.09;97847.69;221774;181;138786;-63
2023/08/29 19:40:33;;;;;;;22.60;15.40;;;;;;;22.90;73.92;97858.15;221876;181;148111;-62
2023/08/29 19:45:39;;;;;;;20.10;14.20;;;;;;;22.85;73.52;97840.56;221781;181;138598;-63
2023/08/29 19:50:47;;;;;;;19.10;14.80;;;;;;;22.77;73.72;97832.71;221808;181;138387;-62
2023/08/29 19:55:55;;;;;;;18.10;13.10;;;;;;;22.65;74.04;97831.13;221756;182;148785;-62
2023/08/29 20:01:08;;;;;;;18.70;13.80;;;;;;;22.57;74.26;97838.34;221699;181;138947;-62
2023/08/29 20:06:12;;;;;;;17.80;13.60;;;;;;;22.54;74.59;97849.30;221815;182;139157;-62
2023/08/29 20:11:18;;;;;;;17.30;12.70;;;;;;;22.51;74.57;97861.97;221718;182;149192;-61
2023/08/29 20:16:22;;;;;;;18.90;13.50;;;;;;;22.45;74.51;97867.64;221839;181;138587;-62
2023/08/29 20:21:27;;;;;;;17.40;12.30;;;;;;;22.39;74.58;97876.55;221741;182;138007;-64
2023/08/29 20:26:31;;;;;;;17.60;11.90;;;;;;;22.37;74.84;97885.45;221915;182;148919;-63
2023/08/29 20:31:35;;;;;;;17.60;12.60;;;;;;;22.36;75.23;97885.33;221788;182;139427;-61
2023/08/29 20:36:41;;;;;;;16.20;11.80;;;;;;;22.34;75.09;97881.27;221924;181;138408;-63
2023/08/29 20:41:45;;;;;;;17.70;12.00;;;;;;;22.30;75.13;97887.28;221862;181;147451;-62
2023/08/29 20:46:49;;;;;;;14.40;12.00;;;;;;;22.23;75.08;97880.19;221829;182;138737;-61
2023/08/29 20:51:53;;;;;;;15.20;10.30;;;;;;;22.17;75.17;97872.81;221792;181;137604;-62
2023/08/29 20:56:58;;;;;;;;;;;;;;;22.14;75.17;97858.61;221716;181;147500;-64
2023/08/29 21:02:04;;;;;;;14.60;11.30;;;;;;;22.15;75.01;97829.55;221776;182;140506;-63
2023/08/29 21:07:08;;;;;;;15.60;11.50;;;;;;;22.18;75.50;97815.02;221776;178;138074;-60
2023/08/29 21:12:11;;;;;;;18.20;11.80;;;;;;;22.15;75.46;97807.73;221884;181;149817;-62
2023/08/29 21:17:16;;;;;;;17.00;12.70;;;;;;;22.07;75.49;97806.21;221837;181;138865;-62
2023/08/29 21:22:21;;;;;;;17.80;11.50;;;;;;;22.01;75.00;97804.59;221831;181;138143;-63
2023/08/29 21:27:26;;;;;;;15.80;11.10;;;;;;;21.99;74.99;97799.15;221855;181;148443;-62
2023/08/29 21:32:31;;;;;;;17.70;11.40;;;;;;;21.97;74.89;97804.89;221958;181;140636;-63
2023/08/29 21:37:35;;;;;;;13.80;10.70;;;;;;;21.97;74.49;97813.98;221833;181;137616;-64
2023/08/29 21:42:44;;;;;;;17.30;10.50;;;;;;;21.97;74.34;97824.69;221818;182;149153;-61
2023/08/29 21:47:51;;;;;;;16.90;10.40;;;;;;;21.99;74.17;97828.95;221747;182;138767;-63
2023/08/29 21:52:55;;;;;;;11.50;8.70;;;;;;;21.95;73.88;97823.39;221891;182;138942;-64
2023/08/29 21:58:02;;;;;;;15.30;10.00;;;;;;;21.95;73.60;97829.94;221740;181;147645;-61
2023/08/29 22:03:06;;;;;;;16.30;10.80;;;;;;;21.96;73.79;97833.90;221829;181;139285;-62
2023/08/29 22:08:09;;;;;;;15.00;11.00;;;;;;;22.00;73.84;97832.56;221755;181;138076;-63
2023/08/29 22:13:14;;;;;;;16.20;10.50;;;;;;;22.03;73.56;97829.45;221636;182;147669;-64
2023/08/29 22:18:19;;;;;;;13.30;10.00;;;;;;;22.06;73.60;97838.17;221718;181;139562;-62
2023/08/29 22:23:25;;;;;;;15.50;8.60;;;;;;;22.05;73.06;97837.13;221839;181;138471;-62
2023/08/29 22:28:29;;;;;;;11.50;8.10;;;;;;;22.07;73.17;97842.68;221876;182;147356;-61
2023/08/29 22:33:35;;;;;;;11.00;8.90;;;;;;;22.11;72.95;97833.51;221811;181;139235;-61
2023/08/29 22:38:39;;;;;;;13.70;9.50;;;;;;;22.13;72.77;97836.27;221608;181;137613;-62
2023/08/29 22:43:44;;;;;;;;;;;;;;;22.12;72.97;97840.56;221864;181;148216;-64
2023/08/29 22:48:50;;;;;;;18.50;12.10;;;;;;;22.09;73.31;97844.41;221980;181;139376;-62
2023/08/29 22:53:57;;;;;;;16.10;10.90;;;;;;;22.07;73.89;97846.14;221934;181;137790;-61
2023/08/29 22:59:01;;;;;;;15.10;10.60;;;;;;;22.11;74.40;97849.55;221742;183;147265;-61
2023/08/29 23:04:05;;;;;;;19.80;10.80;;;;;;;22.18;74.48;97851.92;221817;181;138719;-60
2023/08/29 23:09:11;;;;;;;13.10;10.70;;;;;;;22.18;74.50;97854.77;221894;181;138721;-60
2023/08/29 23:14:25;;;;;;;14.90;9.90;;;;;;;22.18;74.64;97851.21;221927;181;147966;-62
2023/08/29 23:19:29;;;;;;;13.80;9.10;;;;;;;22.19;74.38;97828.91;221841;181;140958;-61
2023/08/29 23:24:34;;;;;;;9.80;6.60;;;;;;;22.15;74.45;97830.43;221873;181;137877;-62
2023/08/29 23:29:38;;;;;;;8.90;5.10;;;;;;;22.12;73.85;97826.50;221871;178;148290;-60
2023/08/29 23:34:45;;;;;;;9.40;5.90;;;;;;;22.08;73.60;97830.98;221885;181;138644;-61
2023/08/29 23:39:50;;;;;;;10.70;5.00;;;;;;;22.01;73.64;97832.98;221892;181;137141;-62
2023/08/29 23:44:54;;;;;;;8.50;5.20;;;;;;;21.93;73.47;97836.38;221946;181;149056;-61
2023/08/29 23:49:59;;;;;;;6.60;5.00;;;;;;;21.83;74.31;97836.14;221791;181;139298;-61
2023/08/29 23:55:06;;;;;;;6.70;4.40;;;;;;;21.70;74.75;97844.66;221808;181;137185;-60
